Time;durP1;ratioP1;P1;durP2;ratioP2;P2;SDS_P1;SDS_P2;PMS_P1;PMS_P2;Temp;Humidity;BMP_temperature;BMP_pressure;BME280_temperature;BME280_humidity;BME280_pressure;Samples;Min_cycle;Max_cycle;Signal;HPM_P1;HPM_P2
2021/07/28 00:00:37;;;;;;;8.20;4.37;;;;;;;;;;3576782;40;20025;-66
2021/07/28 00:03:03;;;;;;;6.53;4.47;;;;;;;;;;3576481;40;21165;-66
2021/07/28 00:05:28;;;;;;;5.70;4.45;;;;;;;;;;3577465;40;20123;-66
2021/07/28 00:07:53;;;;;;;6.30;4.57;;;;;;;;;;3576862;40;20033;-66
2021/07/28 00:10:18;;;;;;;5.90;4.40;;;;;;;;;;3577432;40;20601;-59
2021/07/28 00:12:43;;;;;;;5.87;4.27;;;;;;;;;;3577069;40;20080;-66
2021/07/28 00:15:09;;;;;;;12.63;4.77;;;;;;;;;;3574481;40;20419;-58
2021/07/28 00:17:35;;;;;;;8.25;5.07;;;;;;;;;;3578966;40;20420;-58
2021/07/28 00:20:04;;;;;;;7.45;4.70;;;;;;;;;;3570566;40;20041;-58
2021/07/28 00:25:14;;;;;;;9.90;4.95;;;;;;;;;;3575750;40;20057;-66
2021/07/28 00:27:39;;;;;;;6.83;4.67;;;;;;;;;;3575966;40;20033;-65
2021/07/28 00:30:04;;;;;;;5.77;3.90;;;;;;;;;;3574678;40;20757;-66
2021/07/28 00:32:30;;;;;;;7.63;4.37;;;;;;;;;;3576680;40;20025;-59
2021/07/28 00:34:55;;;;;;;9.27;4.97;;;;;;;;;;3574824;40;20493;-65
2021/07/28 00:37:20;;;;;;;10.70;4.83;;;;;;;;;;3574515;40;20746;-59
2021/07/28 00:39:45;;;;;;;11.18;4.75;;;;;;;;;;3573338;40;20711;-59
2021/07/28 00:42:11;;;;;;;6.17;4.27;;;;;;;;;;3577894;40;20134;-59
2021/07/28 00:44:36;;;;;;;7.93;4.57;;;;;;;;;;3579581;40;20299;-60
2021/07/28 00:47:01;;;;;;;6.23;4.17;;;;;;;;;;3576473;40;20035;-59
2021/07/28 00:49:27;;;;;;;6.80;4.20;;;;;;;;;;3574695;40;20734;-59
2021/07/28 00:51:53;;;;;;;7.60;4.43;;;;;;;;;;3574872;40;20032;-60
2021/07/28 00:54:18;;;;;;;7.63;4.35;;;;;;;;;;3575740;40;20035;-59
2021/07/28 00:56:43;;;;;;;7.03;4.07;;;;;;;;;;3575246;40;20389;-60
2021/07/28 00:59:08;;;;;;;8.20;4.53;;;;;;;;;;3573891;40;20036;-60
2021/07/28 01:01:33;;;;;;;6.03;4.30;;;;;;;;;;3575319;40;20025;-60
2021/07/28 01:03:59;;;;;;;6.97;4.50;;;;;;;;;;3577021;40;20036;-60
2021/07/28 01:06:24;;;;;;;7.63;4.50;;;;;;;;;;3577497;40;20037;-59
2021/07/28 01:08:49;;;;;;;8.63;4.70;;;;;;;;;;3576989;40;20067;-59
2021/07/28 01:11:14;;;;;;;6.73;4.90;;;;;;;;;;3575963;40;20092;-59
2021/07/28 01:13:39;;;;;;;9.80;5.00;;;;;;;;;;3577210;40;20039;-58
2021/07/28 01:16:05;;;;;;;7.40;4.60;;;;;;;;;;3570167;40;20274;-58
2021/07/28 01:18:30;;;;;;;5.43;4.20;;;;;;;;;;3577504;40;20095;-58
2021/07/28 01:20:55;;;;;;;8.38;4.45;;;;;;;;;;3577631;40;20055;-58
2021/07/28 01:23:21;;;;;;;8.50;4.53;;;;;;;;;;3576418;40;20313;-65
2021/07/28 01:25:46;;;;;;;9.43;4.90;;;;;;;;;;3577243;40;20610;-66
2021/07/28 01:28:12;;;;;;;7.57;4.80;;;;;;;;;;3577421;40;20268;-66
2021/07/28 01:30:37;;;;;;;9.43;4.40;;;;;;;;;;3576462;40;20028;-66
2021/07/28 01:33:02;;;;;;;6.97;4.40;;;;;;;;;;3578187;40;20043;-65
2021/07/28 01:35:27;;;;;;;7.75;4.43;;;;;;;;;;3575926;40;20036;-65
2021/07/28 01:37:53;;;;;;;6.97;4.63;;;;;;;;;;3576145;40;20037;-59
2021/07/28 01:40:18;;;;;;;5.45;4.07;;;;;;;;;;3576256;40;20040;-58
2021/07/28 01:42:43;;;;;;;6.67;4.80;;;;;;;;;;3577964;40;20051;-59
2021/07/28 01:45:09;;;;;;;6.80;4.17;;;;;;;;;;3574796;40;20029;-59
2021/07/28 01:47:34;;;;;;;9.97;4.47;;;;;;;;;;3575816;40;20260;-58
2021/07/28 01:49:59;;;;;;;8.13;4.40;;;;;;;;;;3575811;40;20048;-58
2021/07/28 01:52:24;;;;;;;7.70;4.10;;;;;;;;;;3573962;40;20263;-59
2021/07/28 01:54:49;;;;;;;7.57;4.77;;;;;;;;;;3579430;40;20040;-64
2021/07/28 01:57:15;;;;;;;6.50;4.30;;;;;;;;;;3573847;40;20040;-65
2021/07/28 01:59:40;;;;;;;6.50;4.30;;;;;;;;;;3575968;40;20032;-66
2021/07/28 02:02:06;;;;;;;10.48;4.57;;;;;;;;;;3573730;40;20287;-66
2021/07/28 02:04:31;;;;;;;10.13;4.30;;;;;;;;;;3576007;40;20140;-66
2021/07/28 02:06:56;;;;;;;6.60;4.07;;;;;;;;;;3575947;40;20045;-65
2021/07/28 02:09:21;;;;;;;6.20;4.17;;;;;;;;;;3575660;40;20286;-66
2021/07/28 02:11:46;;;;;;;6.17;4.50;;;;;;;;;;3574053;40;20025;-65
2021/07/28 02:14:12;;;;;;;7.20;4.40;;;;;;;;;;3575365;40;20077;-65
2021/07/28 02:16:37;;;;;;;7.03;4.43;;;;;;;;;;3575299;40;20029;-65
2021/07/28 02:19:02;;;;;;;7.50;4.97;;;;;;;;;;3575310;40;20619;-65
2021/07/28 02:21:27;;;;;;;7.43;4.47;;;;;;;;;;3576635;40;20033;-65
2021/07/28 02:23:52;;;;;;;6.83;4.37;;;;;;;;;;3579167;40;20048;-66
2021/07/28 02:26:17;;;;;;;14.03;6.03;;;;;;;;;;3578807;40;20040;-65
2021/07/28 02:28:43;;;;;;;6.43;4.73;;;;;;;;;;3576899;40;20678;-66
2021/07/28 02:31:08;;;;;;;8.03;4.93;;;;;;;;;;3575974;40;20041;-66
2021/07/28 02:33:33;;;;;;;7.60;4.68;;;;;;;;;;3576403;40;20041;-59
2021/07/28 02:35:58;;;;;;;6.93;4.87;;;;;;;;;;3575596;40;20103;-58
2021/07/28 02:38:24;;;;;;;12.03;4.87;;;;;;;;;;3577483;40;20503;-64
2021/07/28 02:40:49;;;;;;;6.93;4.88;;;;;;;;;;3577635;40;20465;-59
2021/07/28 02:43:14;;;;;;;7.03;4.80;;;;;;;;;;3575863;40;20369;-59
2021/07/28 02:45:39;;;;;;;9.17;4.77;;;;;;;;;;3577195;40;20080;-59
2021/07/28 02:48:05;;;;;;;7.90;4.40;;;;;;;;;;3578361;40;20107;-58
2021/07/28 02:50:30;;;;;;;7.27;4.63;;;;;;;;;;3578308;40;20078;-58
2021/07/28 02:52:55;;;;;;;6.97;4.53;;;;;;;;;;3580115;40;20080;-59
2021/07/28 02:55:20;;;;;;;7.17;4.40;;;;;;;;;;3570550;40;20033;-60
2021/07/28 02:57:45;;;;;;;8.90;4.70;;;;;;;;;;3579558;40;20322;-59
2021/07/28 03:00:11;;;;;;;7.83;4.50;;;;;;;;;;3578757;40;20473;-59
2021/07/28 03:02:36;;;;;;;10.27;4.70;;;;;;;;;;3577199;40;20631;-58
2021/07/28 03:05:02;;;;;;;5.82;4.25;;;;;;;;;;3579566;40;20654;-59
2021/07/28 03:07:27;;;;;;;8.13;4.60;;;;;;;;;;3579712;40;20035;-59
2021/07/28 03:09:52;;;;;;;6.83;4.90;;;;;;;;;;3579907;40;20140;-59
2021/07/28 03:12:18;;;;;;;9.10;4.87;;;;;;;;;;3578896;40;20039;-59
2021/07/28 03:14:43;;;;;;;6.68;4.43;;;;;;;;;;3566787;40;20036;-59
2021/07/28 03:17:09;;;;;;;7.07;4.68;;;;;;;;;;3577492;40;20048;-59
2021/07/28 03:19:34;;;;;;;8.40;4.97;;;;;;;;;;3576412;40;20620;-59
2021/07/28 03:21:59;;;;;;;6.63;4.83;;;;;;;;;;3576908;40;20083;-58
2021/07/28 03:24:24;;;;;;;6.70;4.67;;;;;;;;;;3577091;40;20271;-59
2021/07/28 03:26:50;;;;;;;8.50;4.97;;;;;;;;;;3578024;40;20158;-59
2021/07/28 03:29:15;;;;;;;6.37;4.90;;;;;;;;;;3578396;40;20032;-59
2021/07/28 03:31:40;;;;;;;8.93;5.10;;;;;;;;;;3578916;40;20286;-59
2021/07/28 03:34:05;;;;;;;6.53;4.53;;;;;;;;;;3579182;40;20028;-59
2021/07/28 03:36:30;;;;;;;10.83;5.30;;;;;;;;;;3577687;40;20037;-59
2021/07/28 03:38:56;;;;;;;8.00;4.83;;;;;;;;;;3576198;40;20267;-58
2021/07/28 03:41:21;;;;;;;6.67;4.70;;;;;;;;;;3579325;40;20737;-58
2021/07/28 03:43:46;;;;;;;9.33;5.47;;;;;;;;;;3567137;40;20021;-59
2021/07/28 03:46:11;;;;;;;8.30;5.23;;;;;;;;;;3578615;40;20262;-59
2021/07/28 03:48:36;;;;;;;7.80;5.10;;;;;;;;;;3575174;40;20025;-59
2021/07/28 03:51:02;;;;;;;8.03;5.23;;;;;;;;;;3575993;40;20048;-66
2021/07/28 03:53:27;;;;;;;9.70;5.03;;;;;;;;;;3576679;40;20033;-65
2021/07/28 03:55:52;;;;;;;7.53;5.40;;;;;;;;;;3577417;40;20032;-66
2021/07/28 03:58:17;;;;;;;9.30;6.30;;;;;;;;;;3576142;40;20027;-66
2021/07/28 04:00:42;;;;;;;8.00;5.43;;;;;;;;;;3577633;40;20270;-66
2021/07/28 04:03:08;;;;;;;10.23;5.90;;;;;;;;;;3564962;40;20792;-66
2021/07/28 04:05:33;;;;;;;10.87;6.23;;;;;;;;;;3575557;40;20493;-66
2021/07/28 04:07:59;;;;;;;8.75;6.00;;;;;;;;;;3579872;40;20032;-59
2021/07/28 04:10:24;;;;;;;8.23;5.50;;;;;;;;;;3580082;40;20406;-59
2021/07/28 04:12:49;;;;;;;12.67;5.37;;;;;;;;;;3579966;40;20639;-60
2021/07/28 04:15:14;;;;;;;8.63;5.80;;;;;;;;;;3570070;40;20302;-60
2021/07/28 04:17:40;;;;;;;11.50;5.63;;;;;;;;;;3577758;40;20590;-60
2021/07/28 04:20:05;;;;;;;8.30;5.63;;;;;;;;;;3577411;40;20138;-60
2021/07/28 04:22:30;;;;;;;7.72;5.68;;;;;;;;;;3577514;40;20029;-59
2021/07/28 04:24:56;;;;;;;8.10;5.60;;;;;;;;;;3579162;40;20330;-59
2021/07/28 04:27:21;;;;;;;8.50;5.20;;;;;;;;;;3578043;40;20674;-59
2021/07/28 04:29:46;;;;;;;9.93;5.37;;;;;;;;;;3578407;40;20036;-59
2021/07/28 04:32:11;;;;;;;10.98;5.90;;;;;;;;;;3579540;40;20036;-58
2021/07/28 04:34:37;;;;;;;9.20;5.40;;;;;;;;;;3579247;40;20021;-59
2021/07/28 04:37:02;;;;;;;10.13;5.83;;;;;;;;;;3579461;40;20076;-59
2021/07/28 04:39:27;;;;;;;10.63;5.87;;;;;;;;;;3580152;40;20043;-59
2021/07/28 04:41:52;;;;;;;11.43;6.40;;;;;;;;;;3580898;40;20072;-60
2021/07/28 04:44:18;;;;;;;9.47;5.87;;;;;;;;;;3581591;40;20033;-60
2021/07/28 04:46:43;;;;;;;8.65;5.78;;;;;;;;;;3578646;40;20065;-60
2021/07/28 04:49:08;;;;;;;13.33;6.00;;;;;;;;;;3576690;40;20028;-60
2021/07/28 04:51:33;;;;;;;8.23;5.80;;;;;;;;;;3577506;40;20076;-60
2021/07/28 04:53:59;;;;;;;12.07;5.90;;;;;;;;;;3578936;40;20045;-66
2021/07/28 04:56:24;;;;;;;8.43;5.70;;;;;;;;;;3578850;40;20406;-66
2021/07/28 04:58:49;;;;;;;8.83;6.07;;;;;;;;;;3579704;40;20033;-66
2021/07/28 05:01:14;;;;;;;8.60;5.93;;;;;;;;;;3577144;40;20259;-66
2021/07/28 05:03:40;;;;;;;9.38;6.32;;;;;;;;;;3574466;40;20094;-66
2021/07/28 05:06:05;;;;;;;8.43;6.13;;;;;;;;;;3578065;40;20711;-66
2021/07/28 05:08:30;;;;;;;10.40;6.67;;;;;;;;;;3578767;40;20336;-66
2021/07/28 05:10:56;;;;;;;9.07;6.27;;;;;;;;;;3578686;40;20263;-66
2021/07/28 05:13:21;;;;;;;10.40;6.07;;;;;;;;;;3578124;40;20068;-67
2021/07/28 05:15:46;;;;;;;11.18;6.35;;;;;;;;;;3575160;40;20061;-67
2021/07/28 05:18:11;;;;;;;13.63;7.00;;;;;;;;;;3579366;40;20134;-66
2021/07/28 05:20:37;;;;;;;9.93;6.20;;;;;;;;;;3578928;40;20673;-66
2021/07/28 05:23:03;;;;;;;12.90;6.30;;;;;;;;;;3579022;40;20035;-66
2021/07/28 05:25:28;;;;;;;11.60;7.05;;;;;;;;;;3579431;40;20025;-66
2021/07/28 05:27:53;;;;;;;8.77;6.43;;;;;;;;;;3577909;40;20029;-66
2021/07/28 05:30:18;;;;;;;10.07;5.77;;;;;;;;;;3576319;40;20035;-66
2021/07/28 05:32:43;;;;;;;8.57;5.70;;;;;;;;;;3578118;40;20650;-66
2021/07/28 05:35:09;;;;;;;8.53;6.00;;;;;;;;;;3579107;40;20402;-67
2021/07/28 05:37:34;;;;;;;8.40;5.70;;;;;;;;;;3577046;40;20020;-66
2021/07/28 05:39:59;;;;;;;8.67;6.60;;;;;;;;;;3580764;40;20032;-60
2021/07/28 05:42:24;;;;;;;11.30;6.07;;;;;;;;;;3578045;40;20043;-60
2021/07/28 05:44:49;;;;;;;8.97;6.23;;;;;;;;;;3578880;40;20087;-59
2021/07/28 05:47:15;;;;;;;9.90;6.33;;;;;;;;;;3577189;40;20130;-60
2021/07/28 05:49:40;;;;;;;11.02;6.57;;;;;;;;;;3579416;40;20446;-60
2021/07/28 05:52:05;;;;;;;9.33;6.60;;;;;;;;;;3581198;40;20036;-60
2021/07/28 05:54:31;;;;;;;8.88;6.05;;;;;;;;;;3578415;40;20264;-59
2021/07/28 05:56:56;;;;;;;10.07;6.40;;;;;;;;;;3580426;40;20041;-60
2021/07/28 05:59:21;;;;;;;13.10;7.07;;;;;;;;;;3579233;40;20294;-60
2021/07/28 06:01:46;;;;;;;13.73;6.40;;;;;;;;;;3577714;40;20033;-60
2021/07/28 06:04:12;;;;;;;12.70;6.07;;;;;;;;;;3577877;40;20043;-60
2021/07/28 06:06:37;;;;;;;8.60;5.97;;;;;;;;;;3577740;40;20029;-60
2021/07/28 06:09:02;;;;;;;14.93;6.07;;;;;;;;;;3579565;40;20075;-60
2021/07/28 06:11:27;;;;;;;12.50;6.13;;;;;;;;;;3577817;40;20021;-60
2021/07/28 06:13:52;;;;;;;12.67;6.63;;;;;;;;;;3577498;40;20752;-60
2021/07/28 06:16:18;;;;;;;10.57;6.23;;;;;;;;;;3579263;40;20092;-60
2021/07/28 06:18:43;;;;;;;11.17;5.87;;;;;;;;;;3574512;40;20044;-60
2021/07/28 06:21:08;;;;;;;14.60;6.13;;;;;;;;;;3576385;40;20084;-60
2021/07/28 06:23:33;;;;;;;15.80;6.10;;;;;;;;;;3577185;40;20677;-60
2021/07/28 06:25:59;;;;;;;13.40;5.73;;;;;;;;;;3576565;40;20040;-60
2021/07/28 06:28:26;;;;;;;13.47;5.60;;;;;;;;;;3578186;40;20028;-60
2021/07/28 06:30:51;;;;;;;8.95;5.63;;;;;;;;;;3577915;40;20247;-60
2021/07/28 06:33:16;;;;;;;10.00;5.38;;;;;;;;;;3579932;40;20037;-60
2021/07/28 06:35:42;;;;;;;9.47;5.47;;;;;;;;;;3579370;40;20449;-60
2021/07/28 06:38:07;;;;;;;8.73;4.78;;;;;;;;;;3578794;40;20025;-59
2021/07/28 06:40:32;;;;;;;7.53;5.23;;;;;;;;;;3579090;40;20033;-60
2021/07/28 06:42:57;;;;;;;9.73;5.03;;;;;;;;;;3578748;40;20278;-60
2021/07/28 06:45:22;;;;;;;9.17;5.13;;;;;;;;;;3578722;40;20031;-60
2021/07/28 06:47:48;;;;;;;11.47;5.53;;;;;;;;;;3577819;40;20409;-60
2021/07/28 06:50:13;;;;;;;7.60;5.27;;;;;;;;;;3575839;40;20033;-60
2021/07/28 06:52:38;;;;;;;9.27;5.87;;;;;;;;;;3577882;40;20028;-59
2021/07/28 06:55:03;;;;;;;7.90;5.97;;;;;;;;;;3578848;40;20029;-67
2021/07/28 06:57:29;;;;;;;12.30;6.83;;;;;;;;;;3578133;40;20244;-66
2021/07/28 06:59:55;;;;;;;10.60;6.40;;;;;;;;;;3577330;40;20062;-66
2021/07/28 07:02:21;;;;;;;10.88;6.82;;;;;;;;;;3580244;40;20036;-66
2021/07/28 07:04:46;;;;;;;10.13;7.07;;;;;;;;;;3577191;40;20028;-66
2021/07/28 07:07:11;;;;;;;9.90;5.97;;;;;;;;;;3574955;40;20028;-66
2021/07/28 07:09:36;;;;;;;10.53;6.87;;;;;;;;;;3576880;40;20021;-66
2021/07/28 07:12:02;;;;;;;8.90;5.70;;;;;;;;;;3576328;40;20098;-64
2021/07/28 07:14:29;;;;;;;9.00;5.70;;;;;;;;;;3579519;40;20523;-66
2021/07/28 07:16:55;;;;;;;9.95;5.90;;;;;;;;;;3577932;40;20024;-65
2021/07/28 07:19:20;;;;;;;12.32;5.57;;;;;;;;;;3576046;40;20035;-64
2021/07/28 07:21:45;;;;;;;11.70;6.23;;;;;;;;;;3578288;40;20056;-63
2021/07/28 07:24:10;;;;;;;8.90;5.30;;;;;;;;;;3578646;40;20035;-64
2021/07/28 07:26:36;;;;;;;8.87;5.30;;;;;;;;;;3577888;40;20051;-64
2021/07/28 07:29:01;;;;;;;7.57;5.53;;;;;;;;;;3575806;40;20033;-64
2021/07/28 07:31:26;;;;;;;12.63;5.60;;;;;;;;;;3577697;40;20052;-63
2021/07/28 07:33:51;;;;;;;12.23;6.70;;;;;;;;;;3579029;40;20020;-64
2021/07/28 07:36:22;;;;;;;8.13;5.63;;;;;;;;;;3575036;40;20259;-63
2021/07/28 07:38:48;;;;;;;8.20;5.38;;;;;;;;;;3577648;40;20049;-63
2021/07/28 07:41:14;;;;;;;8.68;5.03;;;;;;;;;;3577890;40;20083;-63
2021/07/28 07:43:41;;;;;;;9.13;5.20;;;;;;;;;;3576594;40;20028;-63
2021/07/28 07:46:07;;;;;;;12.40;5.97;;;;;;;;;;3577188;40;20406;-64
2021/07/28 07:48:32;;;;;;;9.73;5.37;;;;;;;;;;3575593;40;20056;-64
2021/07/28 07:50:57;;;;;;;7.43;5.53;;;;;;;;;;3578830;40;20063;-64
2021/07/28 07:53:22;;;;;;;7.83;5.10;;;;;;;;;;3575394;40;20044;-64
2021/07/28 07:55:48;;;;;;;7.57;5.28;;;;;;;;;;3576769;40;20267;-64
2021/07/28 07:58:13;;;;;;;8.33;5.63;;;;;;;;;;3576325;40;20029;-64
2021/07/28 08:00:38;;;;;;;7.30;5.20;;;;;;;;;;3574398;40;20434;-64
2021/07/28 08:03:03;;;;;;;8.73;6.00;;;;;;;;;;3575433;40;20262;-64
2021/07/28 08:05:29;;;;;;;8.68;5.35;;;;;;;;;;3576936;40;20043;-65
2021/07/28 08:07:54;;;;;;;9.30;5.23;;;;;;;;;;3575213;40;20050;-63
2021/07/28 08:10:19;;;;;;;7.53;5.00;;;;;;;;;;3576120;40;20041;-64
2021/07/28 08:12:44;;;;;;;7.13;5.07;;;;;;;;;;3580001;40;20033;-64
2021/07/28 08:15:10;;;;;;;11.23;4.60;;;;;;;;;;3579070;40;20647;-63
2021/07/28 08:17:35;;;;;;;8.13;4.68;;;;;;;;;;3577263;40;20027;-63
2021/07/28 08:20:01;;;;;;;8.70;4.70;;;;;;;;;;3578023;40;20028;-64
2021/07/28 08:22:26;;;;;;;7.35;3.97;;;;;;;;;;3579393;40;20170;-64
2021/07/28 08:24:51;;;;;;;4.83;3.87;;;;;;;;;;3576332;40;20673;-64
2021/07/28 08:27:16;;;;;;;8.30;4.07;;;;;;;;;;3578227;40;20032;-64
2021/07/28 08:29:42;;;;;;;10.70;4.33;;;;;;;;;;3577429;40;20017;-64
2021/07/28 08:32:07;;;;;;;6.73;4.07;;;;;;;;;;3578098;40;20040;-64
2021/07/28 08:34:33;;;;;;;6.87;4.00;;;;;;;;;;3576283;40;20818;-66
2021/07/28 08:36:58;;;;;;;6.68;4.15;;;;;;;;;;3579382;40;20036;-66
2021/07/28 08:39:23;;;;;;;7.53;3.80;;;;;;;;;;3575385;40;20033;-66
2021/07/28 08:41:48;;;;;;;5.10;4.00;;;;;;;;;;3574427;40;20029;-66
2021/07/28 08:44:14;;;;;;;7.57;4.10;;;;;;;;;;3577062;40;20677;-67
2021/07/28 08:46:39;;;;;;;6.97;4.23;;;;;;;;;;3575618;40;20033;-67
2021/07/28 08:49:06;;;;;;;6.67;3.67;;;;;;;;;;3577979;40;20029;-67
2021/07/28 08:51:31;;;;;;;13.00;4.20;;;;;;;;;;3577473;40;20032;-67
2021/07/28 08:53:56;;;;;;;6.17;3.90;;;;;;;;;;3576794;40;20052;-67
2021/07/28 08:56:21;;;;;;;8.53;4.07;;;;;;;;;;3577134;40;20033;-66
2021/07/28 08:58:46;;;;;;;6.50;4.07;;;;;;;;;;3579726;40;20071;-67
2021/07/28 09:01:12;;;;;;;4.97;3.90;;;;;;;;;;3577068;40;20040;-67
2021/07/28 09:03:39;;;;;;;5.30;4.00;;;;;;;;;;3574833;40;20716;-67
2021/07/28 09:06:04;;;;;;;7.60;4.03;;;;;;;;;;3576356;40;20360;-67
2021/07/28 09:08:29;;;;;;;30.63;9.03;;;;;;;;;;3572277;40;20048;-67
2021/07/28 09:10:54;;;;;;;6.53;3.90;;;;;;;;;;3577133;40;20035;-67
2021/07/28 09:13:20;;;;;;;5.07;3.30;;;;;;;;;;3577325;40;20021;-66
2021/07/28 09:15:45;;;;;;;5.83;3.50;;;;;;;;;;3578258;40;20021;-68
2021/07/28 09:18:10;;;;;;;6.40;3.60;;;;;;;;;;3578969;40;20742;-68
2021/07/28 09:20:36;;;;;;;7.73;3.57;;;;;;;;;;3579474;40;20147;-68
2021/07/28 09:23:01;;;;;;;4.28;3.20;;;;;;;;;;3577018;40;20721;-68
2021/07/28 09:25:33;;;;;;;10.60;3.72;;;;;;;;;;3570795;40;20029;-68
2021/07/28 09:27:58;;;;;;;5.18;3.53;;;;;;;;;;3578799;40;20080;-68
2021/07/28 09:30:23;;;;;;;10.87;3.10;;;;;;;;;;3577032;40;20064;-66
2021/07/28 09:32:48;;;;;;;7.83;3.03;;;;;;;;;;3577246;40;20080;-67
2021/07/28 09:35:13;;;;;;;7.50;2.70;;;;;;;;;;3579009;40;20267;-67
2021/07/28 09:37:39;;;;;;;4.07;3.03;;;;;;;;;;3574844;40;20513;-67
2021/07/28 09:40:04;;;;;;;5.83;2.90;;;;;;;;;;3578921;40;20033;-67
2021/07/28 09:42:29;;;;;;;9.00;5.87;;;;;;;;;;3575111;40;20248;-67
2021/07/28 09:44:59;;;;;;;4.40;3.37;;;;;;;;;;3575389;40;20638;-66
2021/07/28 09:47:25;;;;;;;5.75;3.72;;;;;;;;;;3575346;40;20037;-67
2021/07/28 09:49:50;;;;;;;4.80;3.55;;;;;;;;;;3575208;40;20517;-66
2021/07/28 09:52:16;;;;;;;4.97;3.57;;;;;;;;;;3577676;40;20036;-67
2021/07/28 09:54:41;;;;;;;3.53;3.15;;;;;;;;;;3577253;40;20274;-66
2021/07/28 09:57:10;;;;;;;4.70;3.57;;;;;;;;;;3575305;40;20063;-66
2021/07/28 09:59:35;;;;;;;8.52;3.60;;;;;;;;;;3574177;40;20037;-67
2021/07/28 10:02:00;;;;;;;5.53;3.40;;;;;;;;;;3576524;40;20029;-67
2021/07/28 10:04:25;;;;;;;5.50;3.37;;;;;;;;;;3576487;40;20025;-67
2021/07/28 10:06:51;;;;;;;6.17;3.97;;;;;;;;;;3577225;40;20267;-67
2021/07/28 10:09:16;;;;;;;7.68;3.33;;;;;;;;;;3574991;40;20304;-67
2021/07/28 10:11:41;;;;;;;8.00;3.70;;;;;;;;;;3577918;40;20037;-67
2021/07/28 10:14:07;;;;;;;7.47;4.80;;;;;;;;;;3575616;40;20411;-67
2021/07/28 10:16:32;;;;;;;11.48;3.35;;;;;;;;;;3577444;40;20026;-67
2021/07/28 10:18:58;;;;;;;17.15;3.85;;;;;;;;;;3577107;40;20418;-67
2021/07/28 10:21:24;;;;;;;25.77;4.65;;;;;;;;;;3575182;40;20035;-67
2021/07/28 10:23:49;;;;;;;6.63;3.43;;;;;;;;;;3579030;40;20040;-67
2021/07/28 10:26:14;;;;;;;6.97;2.97;;;;;;;;;;3577223;40;20025;-67
2021/07/28 10:28:39;;;;;;;5.80;3.50;;;;;;;;;;3576627;40;20794;-67
2021/07/28 10:31:05;;;;;;;4.35;3.13;;;;;;;;;;3580305;40;20050;-67
2021/07/28 10:33:30;;;;;;;11.67;8.07;;;;;;;;;;3574607;40;20698;-67
2021/07/28 10:35:55;;;;;;;5.33;3.80;;;;;;;;;;3577491;40;20041;-66
2021/07/28 10:38:20;;;;;;;9.40;6.17;;;;;;;;;;3576989;40;20264;-66
2021/07/28 10:40:46;;;;;;;4.07;2.85;;;;;;;;;;3574573;40;20130;-67
2021/07/28 10:43:12;;;;;;;5.28;3.88;;;;;;;;;;3579026;40;20134;-67
2021/07/28 10:45:37;;;;;;;7.03;3.00;;;;;;;;;;3577042;40;20088;-67
2021/07/28 10:48:02;;;;;;;4.97;3.07;;;;;;;;;;3579245;40;20091;-67
2021/07/28 10:50:33;;;;;;;6.03;3.23;;;;;;;;;;3577219;40;20049;-67
2021/07/28 10:52:58;;;;;;;8.13;4.55;;;;;;;;;;3579186;40;20074;-67
2021/07/28 10:55:24;;;;;;;5.00;3.27;;;;;;;;;;3580385;40;20414;-67
2021/07/28 10:57:50;;;;;;;6.90;3.22;;;;;;;;;;3580040;40;20360;-67
2021/07/28 11:00:16;;;;;;;5.18;3.50;;;;;;;;;;3580672;40;20017;-67
2021/07/28 11:02:41;;;;;;;6.57;3.40;;;;;;;;;;3579575;40;20039;-65
2021/07/28 11:05:06;;;;;;;13.03;3.63;;;;;;;;;;3577647;40;20036;-65
2021/07/28 11:07:31;;;;;;;9.80;3.70;;;;;;;;;;3580577;40;20028;-64
2021/07/28 11:09:56;;;;;;;5.97;2.40;;;;;;;;;;3578588;40;20520;-65
2021/07/28 11:12:22;;;;;;;11.23;3.20;;;;;;;;;;3578225;40;20040;-64
2021/07/28 11:14:47;;;;;;;5.57;2.90;;;;;;;;;;3577063;40;20139;-65
2021/07/28 11:17:12;;;;;;;8.93;3.10;;;;;;;;;;3577046;40;20021;-65
2021/07/28 11:19:37;;;;;;;4.03;2.57;;;;;;;;;;3577540;40;20037;-66
2021/07/28 11:22:03;;;;;;;12.93;3.30;;;;;;;;;;3578456;40;20388;-67
2021/07/28 11:24:28;;;;;;;30.37;4.37;;;;;;;;;;3578536;40;20017;-67
2021/07/28 11:26:53;;;;;;;11.97;3.30;;;;;;;;;;3577103;40;20064;-67
2021/07/28 11:29:19;;;;;;;5.23;2.87;;;;;;;;;;3577891;40;20273;-67
2021/07/28 11:31:44;;;;;;;5.20;3.10;;;;;;;;;;3577640;40;20047;-67
2021/07/28 11:34:10;;;;;;;4.10;2.88;;;;;;;;;;3578998;40;20025;-67
2021/07/28 11:36:35;;;;;;;4.30;2.58;;;;;;;;;;3578491;40;20409;-67
2021/07/28 11:39:00;;;;;;;7.25;2.95;;;;;;;;;;3577023;40;20025;-67
2021/07/28 11:41:26;;;;;;;3.13;2.50;;;;;;;;;;3578149;40;20147;-67
2021/07/28 11:43:51;;;;;;;4.80;3.10;;;;;;;;;;3577540;40;20036;-67
2021/07/28 11:46:16;;;;;;;7.17;3.13;;;;;;;;;;3576028;40;20037;-67
2021/07/28 11:48:41;;;;;;;5.07;3.00;;;;;;;;;;3575133;40;20455;-67
2021/07/28 11:51:07;;;;;;;5.68;3.22;;;;;;;;;;3577715;40;20830;-67
2021/07/28 11:53:32;;;;;;;15.10;4.25;;;;;;;;;;3575285;40;20029;-67
2021/07/28 11:55:57;;;;;;;5.03;3.27;;;;;;;;;;3578162;40;20048;-67
2021/07/28 11:58:22;;;;;;;7.27;2.30;;;;;;;;;;3577082;40;20040;-67
2021/07/28 12:00:49;;;;;;;4.40;2.53;;;;;;;;;;3568969;40;20399;-69
2021/07/28 12:03:15;;;;;;;6.60;2.65;;;;;;;;;;3579609;40;20293;-67
2021/07/28 12:05:40;;;;;;;4.00;2.97;;;;;;;;;;3576953;40;20060;-67
2021/07/28 12:08:05;;;;;;;5.33;2.90;;;;;;;;;;3574319;40;20856;-67
2021/07/28 12:10:30;;;;;;;4.77;2.43;;;;;;;;;;3567555;40;20099;-67
2021/07/28 12:12:55;;;;;;;5.80;2.83;;;;;;;;;;3576959;40;20282;-67
2021/07/28 12:15:21;;;;;;;4.75;2.95;;;;;;;;;;3576386;40;20028;-66
2021/07/28 12:17:46;;;;;;;5.30;2.50;;;;;;;;;;3579731;40;20040;-67
2021/07/28 12:20:13;;;;;;;13.80;2.93;;;;;;;;;;3576472;40;20056;-67
2021/07/28 12:22:39;;;;;;;4.95;2.70;;;;;;;;;;3578630;40;20036;-67
2021/07/28 12:25:04;;;;;;;16.73;3.88;;;;;;;;;;3577216;40;20060;-67
2021/07/28 12:27:29;;;;;;;8.07;3.57;;;;;;;;;;3579476;40;20035;-67
2021/07/28 12:29:54;;;;;;;9.03;3.50;;;;;;;;;;3578944;40;20025;-67
2021/07/28 12:32:20;;;;;;;9.67;3.70;;;;;;;;;;3579504;40;20035;-67
2021/07/28 12:34:45;;;;;;;4.53;3.35;;;;;;;;;;3575283;40;20017;-67
2021/07/28 12:39:06;;;;;;;14.90;2.92;;;26.00;88.80;;;;;;3582109;39;20433;-66
2021/07/28 12:41:32;;;;;;;4.07;2.55;;;26.30;85.50;;;;;;3579563;39;20040;-66
2021/07/28 12:43:57;;;;;;;3.00;2.38;;;27.90;87.70;;;;;;3577757;40;20039;-66
2021/07/28 12:46:22;;;;;;;27.25;4.32;;;26.00;86.20;;;;;;3580292;40;20032;-66
2021/07/28 12:48:48;;;;;;;13.20;2.80;;;26.30;86.00;;;;;;3579783;40;20052;-66
2021/07/28 12:51:14;;;;;;;11.23;2.58;;;26.50;84.70;;;;;;3578670;40;20048;-67
2021/07/28 12:53:39;;;;;;;5.93;2.55;;;26.30;84.30;;;;;;3578995;40;20385;-67
2021/07/28 12:56:05;;;;;;;4.57;2.35;;;26.40;84.90;;;;;;3578396;40;20394;-67
2021/07/28 12:58:31;;;;;;;6.75;2.50;;;26.50;84.80;;;;;;3578241;40;20146;-67
2021/07/28 13:00:58;;;;;;;5.40;2.50;;;26.60;84.50;;;;;;3577275;40;20114;-67
2021/07/28 13:03:26;;;;;;;4.25;2.33;;;26.70;84.10;;;;;;3576932;40;20040;-67
2021/07/28 13:05:56;;;;;;;4.63;2.55;;;26.30;86.30;;;;;;3579174;40;20472;-69
2021/07/28 13:08:21;;;;;;;4.88;3.30;;;26.90;85.80;;;;;;3585689;40;20069;-67
2021/07/28 13:10:47;;;;;;;3.90;2.53;;;27.50;82.50;;;;;;3578326;40;20045;-67
2021/07/28 13:13:12;;;;;;;8.07;2.78;;;27.30;82.60;;;;;;3579306;40;20527;-67
2021/07/28 13:15:38;;;;;;;5.20;2.35;;;;;;;;;;3576849;40;20450;-67
2021/07/28 13:18:04;;;;;;;19.92;3.40;;;26.90;83.50;;;;;;3578524;40;20029;-67
2021/07/28 13:20:29;;;;;;;4.07;2.20;;;26.80;83.80;;;;;;3577485;40;20028;-67
2021/07/28 13:22:55;;;;;;;3.40;2.28;;;26.60;85.10;;;;;;3579267;40;20086;-67
2021/07/28 13:25:21;;;;;;;4.50;2.80;;;26.80;85.00;;;;;;3577765;40;20025;-67
2021/07/28 13:27:46;;;;;;;4.10;2.50;;;26.90;85.40;;;;;;3577831;40;20793;-67
2021/07/28 13:30:12;;;;;;;8.68;3.90;;;27.70;85.50;;;;;;3577867;40;20031;-67
2021/07/28 13:32:38;;;;;;;23.98;3.20;;;28.30;83.50;;;;;;3577960;40;20325;-68
2021/07/28 13:35:03;;;;;;;3.20;2.10;;;28.20;83.80;;;;;;3586684;40;20095;-68
2021/07/28 13:37:28;;;;;;;2.80;2.42;;;27.50;82.50;;;;;;3578923;40;20025;-67
2021/07/28 13:39:54;;;;;;;10.75;2.50;;;27.40;83.10;;;;;;3579649;40;20032;-67
2021/07/28 13:42:19;;;;;;;7.22;2.63;;;27.00;84.70;;;;;;3579517;40;20048;-68
2021/07/28 13:44:45;;;;;;;5.95;2.70;;;26.80;84.20;;;;;;3579322;40;20025;-67
2021/07/28 13:47:10;;;;;;;7.60;2.42;;;26.30;86.50;;;;;;3578174;40;20029;-68
2021/07/28 13:49:36;;;;;;;4.88;2.30;;;26.20;86.90;;;;;;3574079;40;20029;-67
2021/07/28 13:52:01;;;;;;;7.13;2.47;;;26.50;86.40;;;;;;3571477;40;20044;-68
2021/07/28 13:54:27;;;;;;;5.82;2.50;;;26.70;87.40;;;;;;3572320;40;20029;-68
2021/07/28 13:56:52;;;;;;;3.90;2.47;;;27.00;83.80;;;;;;3571032;40;20037;-68
2021/07/28 13:59:18;;;;;;;4.25;2.20;;;27.40;83.50;;;;;;3572854;40;20065;-69
2021/07/28 14:01:43;;;;;;;8.60;3.22;;;27.90;80.60;;;;;;3570640;40;20781;-68
2021/07/28 14:04:09;;;;;;;8.57;2.38;;;27.90;81.60;;;;;;3572181;40;20041;-68
2021/07/28 14:06:34;;;;;;;6.07;2.42;;;28.00;80.30;;;;;;3572215;40;20369;-68
2021/07/28 14:09:00;;;;;;;7.75;3.40;;;27.90;79.90;;;;;;3571439;40;20115;-68
2021/07/28 14:11:25;;;;;;;4.63;2.47;;;28.10;77.50;;;;;;3571035;40;20180;-68
2021/07/28 14:13:51;;;;;;;24.63;3.38;;;27.90;76.90;;;;;;3572296;40;20412;-71
2021/07/28 14:16:16;;;;;;;7.75;2.80;;;27.30;79.30;;;;;;3572298;40;20048;-69
2021/07/28 14:18:42;;;;;;;3.80;2.50;;;27.20;80.00;;;;;;3579450;40;20139;-70